This is the latest recevied weather packets stored in our database for station/object N0EDB-13. If no packets are shown the sender has not sent any weather packets the latest 10 day(s).
| Time | Temp. | Humidity | Pressure | Rain* | Wind** | Luminosity | Snow |
|---|---|---|---|---|---|---|---|
| 1777685755 | 15° C | 24% | 1492.1 hPa | 0 mm | - | 17 W/m² | - |
| 1777685455 | 15.56° C | 24% | 1491.4 hPa | 0 mm | - | 20 W/m² | - |
| 1777685154 | 15.56° C | 24% | 1490.6 hPa | 0 mm | - | 24 W/m² | - |
| 1777684854 | 16.11° C | 24% | 1489.8 hPa | 0 mm | - | 28 W/m² | - |
| 1777684554 | 16.11° C | 24% | 1489.3 hPa | 0 mm | - | 37 W/m² | - |
| 1777684253 | 16.11° C | 23% | 1489.1 hPa | 0 mm | - | 46 W/m² | - |
| 1777683953 | 16.11° C | 23% | 1488.7 hPa | 0 mm | - | 53 W/m² | - |
| 1777683652 | 16.11° C | 23% | 1488.4 hPa | 0 mm | - | 45 W/m² | - |
| 1777683351 | 16.67° C | 23% | 1488 hPa | 0 mm | - | 61 W/m² | - |
| 1777683050 | 16.67° C | 22% | 1487.6 hPa | 0 mm | - | 51 W/m² | - |
| 1777682749 | 16.67° C | 21% | 1487.1 hPa | 0 mm | - | 53 W/m² | - |
| 1777682448 | 16.67° C | 21% | 1486.7 hPa | 0 mm | - | 79 W/m² | - |
| 1777682147 | 16.67° C | 21% | 1486.5 hPa | 0 mm | - | 77 W/m² | - |
| 1777681846 | 17.22° C | 20% | 1485.9 hPa | 0 mm | - | 67 W/m² | - |
| 1777681545 | 17.22° C | 20% | 1485 hPa | 0 mm | - | 72 W/m² | - |
| 1777681244 | 17.78° C | 20% | 1484.1 hPa | 0 mm | - | 108 W/m² | - |
| 1777680944 | 18.33° C | 21% | 1482.8 hPa | 0 mm | - | 89 W/m² | - |
| 1777680643 | 18.33° C | 20% | 1482.2 hPa | 0 mm | - | 239 W/m² | - |
| 1777680343 | 18.33° C | 20% | 1482.6 hPa | 0 mm | - | 254 W/m² | - |
| 1777680041 | 17.78° C | 21% | 1483.4 hPa | 0 mm | - | 292 W/m² | - |
| 1777679740 | 17.78° C | 21% | 1484.3 hPa | 0 mm | - | 324 W/m² | - |
| 1777679440 | 17.22° C | 21% | 1484.9 hPa | 0 mm | - | 179 W/m² | - |
| 1777679139 | 17.22° C | 21% | 1485 hPa | 0 mm | - | 126 W/m² | - |
| 1777678839 | 17.78° C | 22% | 1484.7 hPa | 0 mm | - | 127 W/m² | - |
| 1777678538 | 17.78° C | 21% | 1484.1 hPa | 0 mm | - | 109 W/m² | - |
* Rain latest hour (hover to see other rain measurements)
** Current wind speed in m/s (hover to see current wind gust speed)